This is the latest recevied weather packets stored in our database for station/object PU5FJO-13. If no packets are shown the sender has not sent any weather packets the latest 10 day(s).
| Time | Temp. | Humidity | Pressure | Rain* | Wind** | Luminosity | Snow |
|---|---|---|---|---|---|---|---|
| 1778084775 | 26.11° C | 68% | 1017.1 hPa | - | - | - | - |
| 1778084175 | 26.67° C | 67% | 1017.4 hPa | - | - | - | - |
| 1778083575 | 26.67° C | 67% | 1017.6 hPa | - | - | - | - |
| 1778082975 | 26.67° C | 68% | 1017.9 hPa | - | - | - | - |
| 1778082374 | 26.11° C | 68% | 1018 hPa | - | - | - | - |
| 1778081775 | 26.11° C | 68% | 1018.2 hPa | - | - | - | - |
| 1778081174 | 26.11° C | 68% | 1018.4 hPa | - | - | - | - |
| 1778080575 | 26.11° C | 69% | 1018.6 hPa | - | - | - | - |
| 1778079974 | 25° C | 72% | 1018.9 hPa | - | - | - | - |
| 1778079375 | 25° C | 73% | 1019.1 hPa | - | - | - | - |
| 1778078774 | 25.56° C | 71% | 1019.1 hPa | - | - | - | - |
| 1778078175 | 25° C | 73% | 1019.3 hPa | - | - | - | - |
| 1778077575 | 25° C | 72% | 1019.5 hPa | - | - | - | - |
| 1778076974 | 25° C | 72% | 1019.6 hPa | - | - | - | - |
| 1778076374 | 25° C | 72% | 1019.9 hPa | - | - | - | - |
| 1778075774 | 25° C | 74% | 1020 hPa | - | - | - | - |
| 1778075175 | 25° C | 74% | 1020.2 hPa | - | - | - | - |
| 1778074574 | 24.44° C | 74% | 1020.3 hPa | - | - | - | - |
| 1778073975 | 24.44° C | 75% | 1020.4 hPa | - | - | - | - |
| 1778073374 | 23.89° C | 77% | 1020.5 hPa | - | - | - | - |
| 1778072774 | 23.33° C | 77% | 1020.6 hPa | - | - | - | - |
| 1778072174 | 23.33° C | 79% | 1020.5 hPa | - | - | - | - |
| 1778071574 | 23.33° C | 81% | 1020.5 hPa | - | - | - | - |
| 1778070974 | 22.78° C | 82% | 1020.4 hPa | - | - | - | - |
| 1778070374 | 22.22° C | 83% | 1020.4 hPa | - | - | - | - |
* Rain since midnight (hover to see other rain measurements)
** Current wind speed in m/s (hover to see current wind gust speed)